Time;durP1;ratioP1;P1;durP2;ratioP2;P2;SDS_P1;SDS_P2;PMS_P1;PMS_P2;Temp;Humidity;BMP_temperature;BMP_pressure;BME280_temperature;BME280_humidity;BME280_pressure;Samples;Min_cycle;Max_cycle;Signal;HPM_P1;HPM_P2
2022/11/08 00:01:30;;;;;;;12.20;2.00;;;;;;;10.08;100.00;100884.63;5020680;28;20401;-82
2022/11/08 00:01:30;;;;;;;16.67;2.35;;;;;;;10.19;100.00;100887.41;5032963;28;20052;-82
2022/11/08 00:03:06;;;;;;;8.20;2.13;;;;;;;10.29;100.00;100888.31;5031826;28;20034;-82
2022/11/08 00:13:59;;;;;;;9.33;2.03;;;;;;;10.28;100.00;100896.59;5030923;28;20037;-83
2022/11/08 00:16:27;;;;;;;9.10;1.90;;;;;;;10.21;100.00;100885.31;5013739;28;20354;-83
2022/11/08 00:18:52;;;;;;;8.77;1.88;;;;;;;10.16;100.00;100899.44;5027067;28;20033;-82
2022/11/08 00:21:17;;;;;;;7.50;2.00;;;;;;;10.07;100.00;100884.91;5032319;28;20017;-82
2022/11/08 00:23:43;;;;;;;5.15;1.52;;;;;;;10.07;100.00;100890.25;5032922;28;20025;-82
2022/11/08 00:26:08;;;;;;;11.63;1.83;;;;;;;10.02;100.00;100888.34;5031986;28;20026;-83
2022/11/08 00:28:33;;;;;;;12.50;2.17;;;;;;;9.99;100.00;100886.16;5032550;28;20037;-82
2022/11/08 00:31:06;;;;;;;11.10;1.53;;;;;;;9.98;100.00;100876.50;5030457;28;20492;-82
2022/11/08 00:33:32;;;;;;;6.65;1.85;;;;;;;9.96;100.00;100882.09;5032347;28;20033;-82
2022/11/08 00:35:58;;;;;;;13.35;2.38;;;;;;;9.95;100.00;100885.84;5014302;28;20393;-82
2022/11/08 00:38:23;;;;;;;5.70;1.70;;;;;;;9.84;100.00;100873.41;5031880;28;20471;-82
2022/11/08 00:40:49;;;;;;;10.45;1.88;;;;;;;9.83;100.00;100872.63;5031819;28;20065;-83
2022/11/08 00:43:14;;;;;;;9.70;2.00;;;;;;;9.84;100.00;100873.41;5032789;28;20436;-82
2022/11/08 00:45:39;;;;;;;14.07;2.20;;;;;;;9.79;100.00;100865.31;5025710;28;20424;-83
2022/11/08 00:48:05;;;;;;;6.60;1.77;;;;;;;9.73;100.00;100869.03;5030582;28;20064;-83
2022/11/08 00:50:30;;;;;;;9.00;1.63;;;;;;;9.63;100.00;100872.38;5032258;28;20112;-82
2022/11/08 00:52:56;;;;;;;7.50;1.60;;;;;;;9.64;100.00;100869.44;5032189;28;20295;-82
2022/11/08 00:55:21;;;;;;;8.63;1.70;;;;;;;9.65;100.00;100872.94;5030699;28;20497;-82
2022/11/08 00:57:47;;;;;;;11.57;2.00;;;;;;;9.55;100.00;100861.06;5031463;28;20024;-82
2022/11/08 01:00:13;;;;;;;4.55;1.73;;;;;;;9.47;100.00;100853.50;5031193;28;20017;-82
2022/11/08 01:02:38;;;;;;;14.03;2.13;;;;;;;9.46;100.00;100861.75;5030716;28;20041;-82
2022/11/08 01:05:04;;;;;;;9.37;2.00;;;;;;;9.43;100.00;100855.03;5024829;28;20300;-82
2022/11/08 01:07:29;;;;;;;9.80;1.87;;;;;;;9.45;100.00;100860.13;5012076;28;20030;-83
2022/11/08 01:09:55;;;;;;;15.13;2.03;;;;;;;9.42;100.00;100847.25;5011589;28;20118;-83
2022/11/08 01:12:20;;;;;;;13.53;2.50;;;;;;;9.43;100.00;100856.88;5012505;28;20026;-82
2022/11/08 01:14:45;;;;;;;8.03;2.17;;;;;;;9.42;100.00;100856.09;5018522;28;20025;-83
2022/11/08 01:17:11;;;;;;;10.40;2.37;;;;;;;9.38;100.00;100850.44;5031091;28;20449;-82
2022/11/08 01:19:36;;;;;;;11.27;2.60;;;;;;;9.29;100.00;100848.47;5030328;28;20029;-82
2022/11/08 01:22:01;;;;;;;10.33;2.97;;;;;;;9.34;100.00;100849.31;5031051;28;20030;-82
2022/11/08 01:24:26;;;;;;;10.37;2.40;;;;;;;9.37;100.00;100848.81;5031169;28;20045;-82
2022/11/08 01:26:53;;;;;;;14.43;2.20;;;;;;;9.45;100.00;100852.94;5018696;28;20029;-82
2022/11/08 01:29:18;;;;;;;8.93;2.28;;;;;;;9.39;100.00;100848.56;5031689;28;20039;-82
2022/11/08 01:31:43;;;;;;;10.70;2.43;;;;;;;9.43;100.00;100849.69;5030939;28;20108;-82
2022/11/08 01:34:09;;;;;;;11.23;2.53;;;;;;;9.36;100.00;100836.50;5029632;28;20044;-82
2022/11/08 01:36:35;;;;;;;11.67;2.60;;;;;;;9.34;100.00;100840.47;5014505;28;20026;-82
2022/11/08 01:39:00;;;;;;;9.80;2.45;;;;;;;9.37;100.00;100837.31;5011547;28;20409;-83
2022/11/08 01:41:26;;;;;;;7.87;2.23;;;;;;;9.34;100.00;100830.59;5011047;28;20022;-82
2022/11/08 01:43:54;;;;;;;12.27;2.60;;;;;;;9.37;100.00;100829.28;5011523;28;20051;-82
2022/11/08 01:46:34;;;;;;;9.40;1.98;;;;;;;9.39;100.00;100821.81;5016072;28;20022;-83
2022/11/08 01:49:18;;;;;;;7.85;2.40;;;;;;;9.46;100.00;100827.81;5027319;28;20102;-82
2022/11/08 01:51:51;;;;;;;6.85;2.42;;;;;;;9.46;100.00;100813.59;5028237;28;20044;-85
2022/11/08 01:54:39;;;;;;;11.75;2.20;;;;;;;9.47;100.00;100812.53;5030656;28;20017;-84
2022/11/08 01:57:09;;;;;;;6.90;2.35;;;;;;;9.48;100.00;100806.97;5005006;28;20049;-83
2022/11/08 01:59:39;;;;;;;9.30;1.70;;;;;;;9.44;100.00;100797.81;5011317;28;20026;-83
2022/11/08 02:02:07;;;;;;;9.82;1.98;;;;;;;9.40;100.00;100794.81;5021520;28;20072;-84
2022/11/08 02:04:32;;;;;;;7.65;1.90;;;;;;;9.45;100.00;100793.25;5031272;28;20090;-84
2022/11/08 02:06:59;;;;;;;9.53;1.93;;;;;;;9.39;100.00;100795.06;5026038;28;20033;-84
2022/11/08 02:09:24;;;;;;;9.52;1.80;;;;;;;9.38;100.00;100783.59;5029734;28;20431;-83
2022/11/08 02:11:50;;;;;;;12.40;2.40;;;;;;;9.41;100.00;100771.56;5029254;28;20029;-83
2022/11/08 02:14:16;;;;;;;8.57;1.60;;;;;;;9.41;100.00;100766.22;5030371;28;20033;-83
2022/11/08 02:16:42;;;;;;;7.80;1.83;;;;;;;9.52;100.00;100778.63;5017479;28;20021;-83
2022/11/08 02:19:15;;;;;;;8.80;1.77;;;;;;;9.44;100.00;100768.41;5030885;28;20029;-83
2022/11/08 02:21:47;;;;;;;8.32;1.75;;;;;;;9.50;100.00;100762.03;5027556;28;20018;-83
2022/11/08 02:24:13;;;;;;;11.18;2.42;;;;;;;9.56;100.00;100760.22;5031063;28;20044;-83
2022/11/08 02:26:39;;;;;;;12.55;2.78;;;;;;;9.65;100.00;100769.41;5014244;28;20030;-84
2022/11/08 02:29:23;;;;;;;11.23;2.45;;;;;;;9.62;100.00;100758.41;5013176;28;20144;-83
2022/11/08 02:31:48;;;;;;;8.00;1.90;;;;;;;9.63;100.00;100749.31;5028119;28;20041;-83
2022/11/08 02:34:14;;;;;;;8.17;2.20;;;;;;;9.53;100.00;100740.13;5030068;28;20801;-83
2022/11/08 02:36:40;;;;;;;5.67;2.00;;;;;;;9.53;100.00;100744.69;5026898;28;20604;-83
2022/11/08 02:39:05;;;;;;;6.88;1.98;;;;;;;9.61;100.00;100738.06;5029930;28;20037;-83
2022/11/08 02:41:30;;;;;;;8.93;2.00;;;;;;;9.54;100.00;100725.69;5027290;28;20396;-83
2022/11/08 02:43:56;;;;;;;9.17;1.83;;;;;;;9.43;100.00;100721.31;5029647;28;20108;-83
2022/11/08 02:46:22;;;;;;;7.78;1.77;;;;;;;9.38;100.00;100723.94;5026726;28;20542;-83
2022/11/08 02:48:47;;;;;;;7.33;1.90;;;;;;;9.40;100.00;100730.63;5028340;28;20029;-83
2022/11/08 02:51:12;;;;;;;7.57;2.13;;;;;;;9.41;100.00;100726.09;5027036;28;20033;-83
2022/11/08 02:53:37;;;;;;;4.97;1.80;;;;;;;9.34;100.00;100720.97;5030601;28;20030;-84
2022/11/08 02:56:03;;;;;;;8.40;1.95;;;;;;;9.35;100.00;100713.72;5029023;28;20030;-84
2022/11/08 02:58:28;;;;;;;13.67;2.20;;;;;;;9.27;100.00;100716.88;5029890;28;20033;-83
2022/11/08 03:00:54;;;;;;;13.00;2.50;;;;;;;9.19;100.00;100707.44;5029202;28;20472;-82
2022/11/08 03:03:19;;;;;;;13.70;2.73;;;;;;;9.17;100.00;100705.00;5030284;28;20025;-82
2022/11/08 03:05:46;;;;;;;11.33;2.60;;;;;;;9.13;100.00;100703.88;5029313;28;20168;-82
2022/11/08 03:08:11;;;;;;;11.77;2.25;;;;;;;9.02;100.00;100694.13;5009641;28;20033;-82
2022/11/08 03:10:38;;;;;;;8.93;2.53;;;;;;;9.04;100.00;100692.03;5027446;28;20036;-82
2022/11/08 03:13:05;;;;;;;8.27;2.40;;;;;;;9.05;100.00;100689.09;5030185;28;20029;-82
2022/11/08 03:15:30;;;;;;;14.17;3.07;;;;;;;9.06;100.00;100685.38;5028845;28;20288;-82
2022/11/08 03:17:57;;;;;;;15.63;2.40;;;;;;;9.05;100.00;100680.28;5029664;28;20048;-82
2022/11/08 03:20:23;;;;;;;11.07;2.88;;;;;;;9.15;100.00;100675.03;5028843;28;20040;-82
2022/11/08 03:22:55;;;;;;;12.88;2.75;;;;;;;9.10;100.00;100672.31;5028302;28;20037;-82
2022/11/08 03:25:20;;;;;;;9.87;2.50;;;;;;;9.13;100.00;100682.50;5031388;28;20036;-82
2022/11/08 03:27:45;;;;;;;14.55;2.83;;;;;;;9.03;100.00;100653.00;5021011;28;20033;-82
2022/11/08 03:30:11;;;;;;;10.70;2.93;;;;;;;9.08;100.00;100663.75;5032801;28;20036;-82
2022/11/08 03:32:36;;;;;;;9.87;2.33;;;;;;;9.07;100.00;100662.94;5034138;28;20040;-82
2022/11/08 03:35:01;;;;;;;13.97;2.37;;;;;;;9.06;100.00;100660.50;5032106;28;20136;-82
2022/11/08 03:37:27;;;;;;;8.57;2.23;;;;;;;9.00;100.00;100653.50;5032588;28;20033;-82
2022/11/08 03:39:52;;;;;;;12.33;2.50;;;;;;;8.96;100.00;100658.53;5027734;28;20041;-82
2022/11/08 03:42:17;;;;;;;8.85;2.40;;;;;;;8.89;100.00;100642.72;5033574;28;20037;-84
2022/11/08 03:44:43;;;;;;;6.87;2.00;;;;;;;8.90;100.00;100636.31;5031521;28;20099;-82
2022/11/08 03:47:08;;;;;;;7.53;2.10;;;;;;;8.89;100.00;100634.69;5016232;28;20033;-82
2022/11/08 03:49:33;;;;;;;9.17;2.37;;;;;;;8.90;100.00;100622.13;5016253;28;20087;-82
2022/11/08 03:51:59;;;;;;;8.70;2.13;;;;;;;8.86;100.00;100626.34;5032961;28;20552;-82
2022/11/08 03:54:24;;;;;;;7.97;1.30;;;;;;;8.82;100.00;100610.03;5033479;28;20022;-83
2022/11/08 03:56:49;;;;;;;7.77;2.17;;;;;;;8.75;100.00;100604.09;5030760;28;20145;-83
2022/11/08 03:59:15;;;;;;;9.85;1.88;;;;;;;8.75;100.00;100601.41;5033073;28;20068;-83
2022/11/08 04:01:40;;;;;;;7.60;1.87;;;;;;;8.69;100.00;100602.41;5015268;28;20056;-83
2022/11/08 04:04:06;;;;;;;11.13;1.90;;;;;;;8.71;100.00;100613.66;5032546;28;20083;-82
2022/11/08 04:06:32;;;;;;;10.65;2.38;;;;;;;8.64;100.00;100595.94;5021272;28;20052;-82
2022/11/08 04:08:57;;;;;;;9.43;2.50;;;;;;;8.74;100.00;100607.81;5013286;28;20018;-83
2022/11/08 04:16:51;;;;;;;12.70;2.00;;;;;;;8.73;100.00;100577.59;5033197;28;20041;-83
2022/11/08 04:22:01;;;;;;;7.00;1.90;;;;;;;8.67;100.00;100561.78;5031803;28;20102;-83
2022/11/08 04:24:26;;;;;;;6.83;1.90;;;;;;;8.73;100.00;100579.47;5031782;28;20288;-83
2022/11/08 04:26:51;;;;;;;8.93;2.10;;;;;;;8.64;100.00;100569.22;5032718;28;20520;-83
2022/11/08 04:29:16;;;;;;;7.03;1.60;;;;;;;8.69;100.00;100573.03;5013824;28;20037;-83
2022/11/08 04:31:42;;;;;;;8.00;1.97;;;;;;;8.58;100.00;100558.75;5031853;28;20069;-83
2022/11/08 04:34:07;;;;;;;5.33;1.90;;;;;;;8.59;100.00;100558.47;5027021;28;20481;-85
2022/11/08 04:36:32;;;;;;;11.93;2.10;;;;;;;8.63;100.00;100558.81;5012955;28;20018;-85
2022/11/08 04:38:58;;;;;;;6.80;2.00;;;;;;;8.70;100.00;100563.94;5025860;28;20037;-84
2022/11/08 04:41:25;;;;;;;8.43;1.67;;;;;;;8.63;100.00;100553.47;5031699;28;20292;-85
2022/11/08 04:43:52;;;;;;;7.85;2.47;;;;;;;8.66;100.00;100566.31;5031339;28;20476;-85
2022/11/08 04:46:20;;;;;;;7.82;1.95;;;;;;;8.62;100.00;100544.63;5026032;28;20029;-85
2022/11/08 04:48:48;;;;;;;10.00;2.10;;;;;;;8.59;100.00;100557.69;5005386;28;20093;-83
2022/11/08 04:51:16;;;;;;;8.17;1.77;;;;;;;8.53;100.00;100548.81;5029459;28;20065;-84
2022/11/08 04:53:42;;;;;;;7.17;1.87;;;;;;;8.42;100.00;100531.03;5014442;28;20323;-83
2022/11/08 04:56:18;;;;;;;6.93;1.80;;;;;;;8.52;100.00;100530.34;5019820;28;20532;-83
2022/11/08 04:58:45;;;;;;;9.13;1.77;;;;;;;8.54;100.00;100520.25;5030990;28;20116;-85
2022/11/08 05:01:13;;;;;;;7.30;1.60;;;;;;;8.47;100.00;100505.22;5029680;28;20030;-84
2022/11/08 05:03:39;;;;;;;8.00;1.67;;;;;;;8.56;100.00;100523.47;5023043;28;20030;-84
2022/11/08 05:06:09;;;;;;;5.57;1.70;;;;;;;8.58;100.00;100513.34;5017872;28;20036;-84
2022/11/08 05:08:37;;;;;;;7.15;1.70;;;;;;;8.56;100.00;100516.28;5032193;28;20480;-84
2022/11/08 05:11:07;;;;;;;8.50;1.80;;;;;;;8.62;100.00;100512.56;5025386;28;20037;-84
2022/11/08 05:13:33;;;;;;;6.73;1.77;;;;;;;8.55;100.00;100501.31;5012349;28;20076;-85
2022/11/08 05:16:06;;;;;;;4.40;1.40;;;;;;;8.63;100.00;100508.06;5021325;28;20320;-85
2022/11/08 05:18:32;;;;;;;5.60;1.30;;;;;;;8.59;100.00;100504.28;5030965;28;20037;-85
2022/11/08 05:23:45;;;;;;;6.20;1.63;;;;;;;8.53;100.00;100500.75;5026952;28;20400;-87
2022/11/08 05:28:45;;;;;;;8.53;1.70;;;;;;;8.58;100.00;100495.44;5829104;22;20300;-86
2022/11/08 05:31:13;;;;;;;2.78;1.15;;;;;;;8.52;100.00;100485.78;5070328;28;20637;-86
2022/11/08 05:33:38;;;;;;;8.15;1.60;;;;;;;8.53;100.00;100492.75;5058892;28;20039;-86
2022/11/08 05:36:10;;;;;;;5.13;1.60;;;;;;;8.53;100.00;100487.41;5055729;28;20024;-86
2022/11/08 05:38:36;;;;;;;3.65;1.42;;;;;;;8.57;100.00;100480.50;5057490;28;20064;-86
2022/11/08 05:41:08;;;;;;;1.92;1.35;;;;;;;8.59;100.00;100477.56;5048356;28;20025;-85
2022/11/08 05:43:33;;;;;;;3.70;1.30;;;;;;;8.55;100.00;100487.97;5031555;28;20515;-86
2022/11/08 05:45:59;;;;;;;7.27;1.60;;;;;;;8.51;100.00;100481.50;5030894;28;20116;-86
2022/11/08 05:48:25;;;;;;;5.78;1.40;;;;;;;8.53;100.00;100484.72;5042163;28;20032;-86
2022/11/08 05:50:50;;;;;;;6.10;1.50;;;;;;;8.50;100.00;100477.22;5049916;28;20029;-86
2022/11/08 05:53:16;;;;;;;4.87;1.40;;;;;;;8.50;100.00;100477.22;5048859;28;20056;-86
2022/11/08 05:55:41;;;;;;;7.25;1.20;;;;;;;8.47;100.00;100475.00;5051404;28;20048;-86
2022/11/08 05:58:07;;;;;;;8.70;1.50;;;;;;;8.51;100.00;100483.34;5048851;28;20481;-86
2022/11/08 06:00:33;;;;;;;4.43;1.08;;;;;;;8.44;100.00;100467.50;5048907;28;20036;-86
2022/11/08 06:03:04;;;;;;;4.63;1.47;;;;;;;8.45;100.00;100461.09;5043970;28;20032;-86
2022/11/08 06:05:30;;;;;;;8.35;1.40;;;;;;;8.56;100.00;100476.22;5049248;28;20060;-86
2022/11/08 06:07:55;;;;;;;6.68;1.33;;;;;;;8.49;100.00;100473.72;5048085;28;20523;-85
2022/11/08 06:10:20;;;;;;;6.70;1.47;;;;;;;8.46;100.00;100473.41;5050650;28;20028;-85
2022/11/08 06:12:46;;;;;;;8.17;1.60;;;;;;;8.52;100.00;100477.78;5049742;28;20021;-83
2022/11/08 06:15:11;;;;;;;6.30;1.80;;;;;;;8.51;100.00;100465.47;5049666;28;20382;-84
2022/11/08 06:17:37;;;;;;;4.67;1.20;;;;;;;8.53;100.00;100468.72;5049284;28;20053;-84
2022/11/08 06:20:03;;;;;;;5.57;1.30;;;;;;;8.53;100.00;100471.38;5047502;28;20031;-83
2022/11/08 06:22:31;;;;;;;5.22;1.48;;;;;;;8.49;100.00;100467.59;5050265;28;20116;-86
2022/11/08 06:24:58;;;;;;;8.52;1.77;;;;;;;8.53;100.00;100466.03;5048533;28;20040;-84
2022/11/08 06:27:23;;;;;;;2.03;1.38;;;;;;;8.52;100.00;100467.09;5049284;28;20120;-85
2022/11/08 06:29:49;;;;;;;10.33;1.67;;;;;;;8.51;100.00;100476.16;5047789;28;20148;-86
2022/11/08 06:32:14;;;;;;;4.07;1.40;;;;;;;8.52;100.00;100475.09;5049153;28;20052;-86
2022/11/08 06:34:40;;;;;;;5.03;1.57;;;;;;;8.56;100.00;100484.22;5046355;28;20114;-84
2022/11/08 06:37:05;;;;;;;10.88;1.52;;;;;;;8.55;100.00;100473.78;5047790;28;20035;-84
2022/11/08 06:39:31;;;;;;;4.90;1.23;;;;;;;8.58;100.00;100482.09;5049724;28;20037;-85
2022/11/08 06:41:56;;;;;;;7.72;1.50;;;;;;;8.59;100.00;100489.03;5045665;28;20025;-84
2022/11/08 06:44:22;;;;;;;4.17;1.70;;;;;;;8.54;100.00;100480.19;5047890;28;20107;-84
2022/11/08 06:46:47;;;;;;;6.38;1.60;;;;;;;8.57;100.00;100485.84;5048648;28;20021;-84
2022/11/08 06:49:12;;;;;;;3.17;1.57;;;;;;;8.49;100.00;100475.59;5050973;28;20021;-84
2022/11/08 06:51:38;;;;;;;6.07;1.70;;;;;;;8.51;100.00;100481.50;5040306;28;20033;-84
2022/11/08 06:54:06;;;;;;;6.57;1.70;;;;;;;8.51;100.00;100470.81;5044243;28;20066;-84
2022/11/08 06:56:32;;;;;;;5.47;2.10;;;;;;;8.56;100.00;100481.56;5050197;28;20438;-83
2022/11/08 06:58:58;;;;;;;4.70;1.88;;;;;;;8.53;100.00;100483.91;5047026;28;20052;-84
2022/11/08 07:01:23;;;;;;;6.57;1.80;;;;;;;8.53;100.00;100470.56;5048400;28;20060;-84
2022/11/08 07:03:48;;;;;;;6.90;2.07;;;;;;;8.49;100.00;100473.72;5046814;28;20123;-84
2022/11/08 07:06:14;;;;;;;4.17;1.50;;;;;;;8.48;100.00;100492.69;5049113;28;20473;-84
2022/11/08 07:08:39;;;;;;;7.80;2.20;;;;;;;8.57;100.00;100485.03;5045760;28;20037;-86
2022/11/08 07:11:06;;;;;;;9.50;1.77;;;;;;;8.59;100.00;100493.59;5045569;28;20049;-85
2022/11/08 07:13:31;;;;;;;3.50;1.47;;;;;;;8.59;100.00;100499.72;5049499;28;20033;-85
2022/11/08 07:15:58;;;;;;;4.53;1.40;;;;;;;8.52;100.00;100492.97;5043414;28;20035;-86
2022/11/08 07:18:25;;;;;;;8.23;1.90;;;;;;;8.63;100.00;100506.19;5044868;28;20295;-85
2022/11/08 07:20:51;;;;;;;5.05;1.80;;;;;;;8.66;100.00;100504.06;5037513;28;20121;-85
2022/11/08 07:23:17;;;;;;;6.70;1.85;;;;;;;8.68;100.00;100499.28;5045371;28;20108;-85
2022/11/08 07:25:43;;;;;;;5.43;1.50;;;;;;;8.73;100.00;100500.13;5044994;28;20021;-85
2022/11/08 07:28:17;;;;;;;5.53;1.80;;;;;;;8.79;100.00;100495.63;5049967;28;20025;-84
2022/11/08 07:30:43;;;;;;;5.77;2.00;;;;;;;8.82;100.00;100492.47;5048687;28;20029;-84
2022/11/08 07:33:09;;;;;;;6.73;2.00;;;;;;;8.91;100.00;100498.16;5047349;28;20326;-85
2022/11/08 07:35:34;;;;;;;5.75;1.90;;;;;;;8.89;100.00;100493.06;5049234;28;20037;-86
2022/11/08 07:37:59;;;;;;;5.97;1.93;;;;;;;8.87;100.00;100492.50;5049461;28;20495;-85
2022/11/08 07:40:25;;;;;;;7.47;1.90;;;;;;;8.87;100.00;100479.16;5058335;28;20020;-87
2022/11/08 07:42:51;;;;;;;5.07;1.70;;;;;;;8.92;100.00;100476.53;5039387;28;20029;-85
2022/11/08 07:45:16;;;;;;;7.43;1.80;;;;;;;9.01;100.00;100489.41;5050623;28;20279;-85
2022/11/08 07:47:42;;;;;;;10.55;1.60;;;;;;;9.01;100.00;100487.56;5047684;28;20033;-85
2022/11/08 07:50:08;;;;;;;4.70;1.67;;;;;;;9.08;100.00;100492.69;5048835;28;21227;-85
2022/11/08 07:52:33;;;;;;;5.40;1.70;;;;;;;9.12;100.00;100485.78;5048015;28;20067;-85
2022/11/08 07:55:06;;;;;;;6.03;1.90;;;;;;;9.16;100.00;100478.81;5049678;28;20044;-90
2022/11/08 07:58:00;;;;;;;7.82;1.75;;;;;;;9.20;100.00;100465.78;5058690;22;20454;-90
2022/11/08 08:00:35;;;;;;;15.18;4.00;;;;;;;9.29;100.00;100466.09;5022394;28;20041;-89
2022/11/08 08:03:01;;;;;;;20.87;6.17;;;;;;;9.43;100.00;100474.44;5025238;28;20049;-91
2022/11/08 08:05:28;;;;;;;8.33;2.60;;;;;;;9.57;100.00;100485.50;5038649;28;20667;-91
2022/11/08 08:07:58;;;;;;;9.07;3.60;;;;;;;9.64;100.00;100481.53;5050271;28;20078;-91
2022/11/08 08:10:25;;;;;;;6.13;2.53;;;;;;;9.69;100.00;100484.22;5051393;28;20029;-90
2022/11/08 08:12:50;;;;;;;5.82;2.25;;;;;;;9.57;100.00;100456.06;5051260;28;20480;-89
2022/11/08 08:15:15;;;;;;;4.97;1.93;;;;;;;9.77;100.00;100480.25;5054753;28;20031;-91
2022/11/08 08:17:41;;;;;;;5.00;1.98;;;;;;;9.76;100.00;100451.09;5053538;28;20652;-90
2022/11/08 08:20:07;;;;;;;4.47;1.67;;;;;;;10.10;100.00;100475.56;5054772;28;20017;-90
2022/11/08 08:22:35;;;;;;;3.65;1.60;;;;;;;10.17;99.58;100466.47;5046994;28;20116;-89
2022/11/08 08:25:00;;;;;;;4.47;1.37;;;;;;;10.35;97.54;100490.09;5053561;28;20472;-92
2022/11/08 08:35:17;;;;;;;2.23;1.33;;;;;;;10.56;94.93;100474.88;5467284;22;20122;-94
2022/11/08 08:38:02;;;;;;;4.23;1.17;;;;;;;10.69;96.29;100500.38;5039220;28;20382;-93
2022/11/08 08:40:33;;;;;;;2.42;1.20;;;;;;;10.64;95.27;100489.63;5053980;28;20047;-94
2022/11/08 08:43:37;;;;;;;2.85;0.93;;;;;;;10.66;94.55;100482.13;5052034;28;20037;-95
2022/11/08 08:46:07;;;;;;;2.47;1.27;;;;;;;10.75;94.94;100477.88;5048629;28;20071;-91
2022/11/08 08:48:48;;;;;;;1.27;0.90;;;;;;;10.82;95.36;100464.19;5052041;28;20449;-88
2022/11/08 08:51:16;;;;;;;2.65;1.30;;;;;;;10.98;91.33;100467.66;5047481;28;20079;-89
2022/11/08 08:54:03;;;;;;;2.90;1.50;;;;;;;11.35;92.24;100508.66;5051096;28;20021;-89
2022/11/08 08:56:38;;;;;;;5.07;1.40;;;;;;;11.22;89.76;100451.00;5043193;28;20279;-90
2022/11/08 08:59:16;;;;;;;1.92;1.02;;;;;;;11.29;89.10;100448.88;5050531;28;20079;-89
2022/11/08 09:01:41;;;;;;;3.38;1.60;;;;;;;11.64;87.76;100487.41;5053222;28;20013;-89
2022/11/08 09:04:34;;;;;;;7.23;1.30;;;;;;;11.78;89.69;100492.97;5056668;28;20017;-91
2022/11/08 09:07:48;;;;;;;4.32;1.20;;;;;;;11.84;87.91;100501.03;5054435;28;20046;-91
2022/11/08 09:10:23;;;;;;;7.35;1.20;;;;;;;11.58;88.15;100437.50;5050784;28;20041;-90
2022/11/08 09:12:57;;;;;;;2.70;0.90;;;;;;;11.92;87.53;100479.78;5051387;28;20189;-90
2022/11/08 09:18:54;;;;;;;5.57;1.33;;;;;;;11.77;86.52;100429.66;5050393;28;20503;-91
2022/11/08 09:21:30;;;;;;;;;;;;;;;;;;;;;
2022/11/08 09:24:06;;;;;;;;;;;;;;;;;;;;;
2022/11/08 09:29:24;;;;;;;3.55;1.08;;;;;;;12.47;85.17;100467.44;5182940;22;20056;-92
2022/11/08 09:32:07;;;;;;;5.73;2.17;;;;;;;12.26;85.05;100432.66;5070552;28;20044;-89
2022/11/08 09:34:45;;;;;;;16.33;8.32;;;;;;;12.49;83.87;100476.03;5051658;28;20028;-88
2022/11/08 09:37:16;;;;;;;6.65;2.35;;;;;;;12.21;83.14;100420.06;5071164;28;20028;-89
2022/11/08 09:39:45;;;;;;;5.88;1.30;;;;;;;12.25;83.00;100433.72;5066795;28;20039;-88
2022/11/08 09:42:19;;;;;;;2.17;1.10;;;;;;;12.56;83.31;100480.00;5059870;28;20118;-89
2022/11/08 09:45:27;;;;;;;;;;;;;;;;;;;;;
2022/11/08 09:47:59;;;;;;;3.63;1.20;;;;;;;12.66;82.94;100449.56;5067565;28;20043;-90
2022/11/08 09:50:40;;;;;;;4.20;1.37;;;;;;;12.71;82.24;100443.34;5069733;28;20028;-89
2022/11/08 09:53:25;;;;;;;4.20;1.20;;;;;;;13.08;81.98;100476.09;5050807;28;20033;-88
2022/11/08 09:59:31;;;;;;;3.58;1.35;;;;;;;13.34;82.11;100487.41;5341431;22;20067;-88
2022/11/08 10:02:14;;;;;;;5.00;1.42;;;;;;;13.12;78.48;100452.91;5039269;28;20035;-88
2022/11/08 10:04:58;;;;;;;3.65;1.10;;;;;;;13.15;79.62;100452.34;5049680;28;20040;-89
2022/11/08 10:07:46;;;;;;;5.47;1.10;;;;;;;13.44;78.92;100498.09;5080728;22;20487;-87
2022/11/08 10:10:36;;;;;;;4.72;1.20;;;;;;;13.54;78.72;100491.00;5072273;28;20547;-88
2022/11/08 10:13:14;;;;;;;3.30;1.30;;;;;;;13.36;79.78;100457.53;5108685;22;20546;-88
2022/11/08 10:22:01;;;;;;;1.88;1.40;;;;;;;13.78;76.64;100489.13;5212502;22;20056;-88
2022/11/08 10:24:57;;;;;;;2.43;1.03;;;;;;;13.88;77.27;100501.66;4981705;28;20044;-90
2022/11/08 10:35:11;;;;;;;7.75;1.40;;;;;;;14.19;74.89;100498.56;5868889;22;20537;-88
2022/11/08 10:37:52;;;;;;;4.07;1.08;;;;;;;14.07;73.70;100482.81;5061159;28;20032;-85
2022/11/08 10:40:56;;;;;;;5.05;1.20;;;;;;;14.27;75.25;100513.28;5095611;22;20074;-88
2022/11/08 10:44:00;;;;;;;4.28;1.30;;;;;;;14.29;74.19;100510.31;5047413;28;20029;-90
2022/11/08 10:49:45;;;;;;;2.50;1.30;;;;;;;14.08;75.38;100494.41;5064933;28;20506;-90
2022/11/08 10:52:11;;;;;;;2.30;1.20;;;;;;;14.18;73.49;100506.94;5045857;28;20024;-86
2022/11/08 10:54:46;;;;;;;2.10;1.10;;;;;;;14.16;74.89;100492.97;5065092;28;20400;-87
2022/11/08 10:57:41;;;;;;;4.72;1.27;;;;;;;14.23;75.65;100485.34;5067760;28;20107;-86
2022/11/08 11:00:18;;;;;;;4.75;1.45;;;;;;;14.37;72.99;100509.66;5066289;28;20151;-86
2022/11/08 11:02:52;;;;;;;3.20;1.00;;;;;;;14.41;73.58;100513.38;5062747;28;20094;-86
2022/11/08 11:05:17;;;;;;;3.50;1.20;;;;;;;14.41;73.39;100513.38;5063721;28;20025;-86
2022/11/08 11:07:59;;;;;;;5.50;1.10;;;;;;;14.35;73.74;100472.22;5062861;28;20380;-85
2022/11/08 11:10:24;;;;;;;3.17;1.20;;;;;;;14.55;72.40;100494.59;5062316;28;20104;-85
2022/11/08 11:13:11;;;;;;;5.33;1.37;;;;;;;14.71;73.63;100494.38;5054630;28;20112;-85
2022/11/08 11:15:45;;;;;;;5.68;1.20;;;;;;;14.78;70.52;100478.63;5058139;28;20043;-86
2022/11/08 11:18:31;;;;;;;6.13;1.30;;;;;;;14.69;71.94;100479.28;5062832;28;20052;-86
2022/11/08 11:21:08;;;;;;;3.67;1.20;;;;;;;14.68;72.62;100469.59;5042389;28;20045;-85
2022/11/08 11:23:37;;;;;;;1.88;1.20;;;;;;;14.80;71.78;100455.66;5061051;28;20029;-86
2022/11/08 11:26:05;;;;;;;6.45;1.35;;;;;;;14.83;71.37;100465.03;5059993;28;20108;-86
2022/11/08 11:28:35;;;;;;;3.88;1.27;;;;;;;14.78;71.05;100473.22;5066918;28;20033;-86
2022/11/08 11:31:15;;;;;;;5.13;1.20;;;;;;;14.75;70.30;100438.75;5060301;28;20039;-87
2022/11/08 11:33:47;;;;;;;4.10;1.13;;;;;;;14.88;70.84;100456.88;5062481;28;20034;-87
2022/11/08 11:36:19;;;;;;;6.22;1.20;;;;;;;14.84;69.87;100426.19;5065614;28;20043;-87
2022/11/08 11:39:14;;;;;;;3.43;1.13;;;;;;;15.06;70.76;100430.94;5041173;28;20040;-86
2022/11/08 11:42:05;;;;;;;2.97;1.20;;;;;;;15.16;71.07;100439.94;5058590;28;20074;-86
2022/11/08 11:44:43;;;;;;;6.82;1.50;;;;;;;15.10;69.64;100452.72;5018981;28;20071;-85
2022/11/08 11:47:29;;;;;;;3.25;1.38;;;;;;;15.09;70.58;100449.22;5065303;28;20080;-86
2022/11/08 11:50:01;;;;;;;5.13;1.30;;;;;;;15.08;69.71;100436.81;5069932;28;20036;-87
2022/11/08 11:52:27;;;;;;;3.65;1.33;;;;;;;15.22;69.74;100450.34;5071913;28;20503;-86
2022/11/08 11:54:52;;;;;;;3.97;1.20;;;;;;;15.27;68.79;100444.03;5070673;28;20105;-88
2022/11/08 11:57:47;;;;;;;4.05;1.40;;;;;;;15.24;69.97;100442.75;5047413;28;20024;-87
2022/11/08 12:00:14;;;;;;;4.17;1.37;;;;;;;15.13;69.25;100430.53;5057327;28;20475;-87
2022/11/08 12:02:58;;;;;;;2.80;1.20;;;;;;;15.06;70.30;100425.53;5073633;28;20654;-87
2022/11/08 12:05:27;;;;;;;3.63;1.90;;;;;;;15.04;70.14;100433.13;5073788;28;20020;-86
2022/11/08 12:08:37;;;;;;;3.17;1.55;;;;;;;14.86;71.25;100426.69;5072453;28;20040;-85
2022/11/08 12:11:53;;;;;;;4.70;1.58;;;;;;;14.72;69.83;100428.56;5073133;28;20063;-87
2022/11/08 12:14:50;;;;;;;2.97;1.45;;;;;;;14.74;71.61;100415.59;5021694;28;20407;-87
2022/11/08 12:17:34;;;;;;;4.00;1.30;;;;;;;14.75;70.76;100414.50;5069296;28;20391;-87
2022/11/08 12:20:28;;;;;;;3.70;1.13;;;;;;;14.72;71.98;100418.56;5066415;28;20041;-87
2022/11/08 12:23:13;;;;;;;4.70;1.50;;;;;;;14.75;71.18;100417.19;5063937;28;20781;-87
2022/11/08 12:25:51;;;;;;;6.93;1.58;;;;;;;14.73;72.04;100422.06;5068493;28;20051;-87
2022/11/08 12:29:02;;;;;;;5.22;1.42;;;;;;;14.71;71.85;100432.34;5049775;28;20036;-87
2022/11/08 12:32:09;;;;;;;4.03;1.40;;;;;;;14.64;71.95;100417.31;5062954;28;20029;-88
2022/11/08 12:34:44;;;;;;;3.63;1.40;;;;;;;14.70;71.93;100418.06;5023337;28;20041;-87
2022/11/08 12:37:25;;;;;;;3.25;1.30;;;;;;;14.68;72.27;100420.28;5035236;28;20040;-87